Terminal Aerodrome Forecast
Issued by NWS

Home | Current Version | Previous Version | Text Only | Print | Product List | Glossary On
Versions: 1 2 3 4 5 6 7 8 9 10 11 12 13
000
FTUS45 KRIW 230500
TAFPNA
TAF
KPNA 230520Z 2306/2406 29015G25KT P6SM VCSH SCT035 BKN060
      TEMPO 2306/2308 4SM -SHSN BKN025
     FM231600 29022G32KT P6SM SCT060 BKN090
     FM240200 30013KT P6SM BKN090
     FM240500 30009KT P6SM SCT090
      AMD LTD TO CLD VIS AND WIND=

USA.gov is the U.S. government's official web portal to all federal, state and local government web resources and services.